createdAt,value
2023-02-22T00:00:43.670Z,10.95
2023-02-22T00:03:15.291Z,10.96
2023-02-22T00:05:46.425Z,10.82
2023-02-22T00:08:16.006Z,10.59
2023-02-22T00:10:44.345Z,10.30
2023-02-22T00:13:13.473Z,10.03
2023-02-22T00:15:45.232Z,9.81
2023-02-22T00:18:13.439Z,9.71
2023-02-22T00:20:40.665Z,9.79
2023-02-22T00:23:09.416Z,9.83
2023-02-22T00:25:36.169Z,9.80
2023-02-22T00:28:04.627Z,9.81
2023-02-22T00:30:33.211Z,9.83
2023-02-22T00:33:02.989Z,9.81
2023-02-22T00:35:30.222Z,9.79
2023-02-22T00:38:01.096Z,9.93
2023-02-22T00:40:32.728Z,10.08
2023-02-22T00:43:04.020Z,10.14
2023-02-22T00:45:32.563Z,10.13
2023-02-22T00:47:59.816Z,10.13
2023-02-22T00:50:28.848Z,10.13
2023-02-22T00:52:56.173Z,10.18
2023-02-22T00:55:28.020Z,10.25
2023-02-22T00:57:55.192Z,10.32
2023-02-22T01:00:31.344Z,10.33
2023-02-22T01:02:58.484Z,10.37
2023-02-22T01:05:27.035Z,10.48
2023-02-22T01:07:55.500Z,10.51
2023-02-22T01:10:24.237Z,10.47
2023-02-22T01:12:54.898Z,10.43
2023-02-22T01:15:22.738Z,10.48
2023-02-22T01:17:50.924Z,10.54
2023-02-22T01:20:18.086Z,10.60
2023-02-22T01:22:46.525Z,10.61
2023-02-22T01:25:21.770Z,10.54
2023-02-22T01:27:49.593Z,10.47
2023-02-22T01:30:19.407Z,10.40
2023-02-22T01:32:46.246Z,10.43
2023-02-22T01:35:17.889Z,10.46
2023-02-22T01:37:45.224Z,10.37
2023-02-22T01:40:23.231Z,10.24
2023-02-22T01:42:54.501Z,10.17
2023-02-22T01:45:31.885Z,10.07
2023-02-22T01:48:16.123Z,10.02
2023-02-22T01:50:59.039Z,9.89
2023-02-22T01:53:37.296Z,9.77
2023-02-22T01:56:04.649Z,9.64
2023-02-22T01:58:33.054Z,9.63
2023-02-22T02:01:00.665Z,9.66
2023-02-22T02:03:29.334Z,9.71
2023-02-22T02:05:58.068Z,9.65
2023-02-22T02:08:53.453Z,9.49
2023-02-22T02:11:24.093Z,9.24
2023-02-22T02:13:56.184Z,9.15
2023-02-22T02:16:24.467Z,9.15
2023-02-22T02:18:51.622Z,9.14
2023-02-22T02:21:18.651Z,9.11
2023-02-22T02:23:58.887Z,9.05
2023-02-22T02:26:34.434Z,9.00
2023-02-22T02:29:33.047Z,9.00
2023-02-22T02:32:08.908Z,8.97
2023-02-22T02:35:03.234Z,8.95
2023-02-22T02:38:07.950Z,8.98
2023-02-22T02:40:40.487Z,9.01
2023-02-22T02:43:30.206Z,9.03
2023-02-22T02:46:03.805Z,9.02
2023-02-22T02:48:30.803Z,9.08
2023-02-22T02:50:58.403Z,9.18
2023-02-22T02:53:37.017Z,9.26
2023-02-22T02:56:04.156Z,9.36
2023-02-22T02:58:31.064Z,9.36
2023-02-22T03:00:59.703Z,9.34
2023-02-22T03:03:36.958Z,9.33
2023-02-22T03:06:41.585Z,9.37
2023-02-22T03:09:14.125Z,9.42
2023-02-22T03:12:01.599Z,9.45
2023-02-22T03:14:40.064Z,9.41
2023-02-22T03:17:11.697Z,9.33
2023-02-22T03:19:51.457Z,9.35
2023-02-22T03:22:25.534Z,9.35
2023-02-22T03:25:18.842Z,9.41
2023-02-22T03:27:52.761Z,9.51
2023-02-22T03:30:23.497Z,9.54
2023-02-22T03:32:54.042Z,9.57
2023-02-22T03:35:23.451Z,9.61
2023-02-22T03:37:54.328Z,9.65
2023-02-22T03:40:26.367Z,9.69
2023-02-22T03:43:16.821Z,9.65
2023-02-22T03:45:45.243Z,9.57
2023-02-22T03:49:29.982Z,8.19
2023-02-22T03:51:58.308Z,9.17
2023-02-22T03:54:27.612Z,9.22
2023-02-22T03:57:07.983Z,9.19
2023-02-22T03:59:39.227Z,9.19
2023-02-22T04:02:07.698Z,9.20
2023-02-22T04:04:36.127Z,9.18
2023-02-22T04:07:04.822Z,9.16
2023-02-22T04:09:37.996Z,9.18
2023-02-22T04:12:06.965Z,9.24
2023-02-22T04:14:50.081Z,9.29
2023-02-22T04:17:18.421Z,9.28
2023-02-22T04:19:46.553Z,9.27
2023-02-22T04:22:15.629Z,9.23
2023-02-22T04:24:45.507Z,9.20
2023-02-22T04:27:13.598Z,9.21
2023-02-22T04:29:43.127Z,9.22
2023-02-22T04:32:13.639Z,9.16
2023-02-22T04:34:43.292Z,9.04
2023-02-22T04:37:12.575Z,8.96
2023-02-22T04:39:41.248Z,8.96
2023-02-22T04:42:09.534Z,8.96
2023-02-22T04:44:38.097Z,8.90
2023-02-22T04:47:06.643Z,8.78
2023-02-22T04:49:36.835Z,8.61
2023-02-22T04:52:06.328Z,8.51
2023-02-22T04:54:39.654Z,8.46
2023-02-22T04:57:08.013Z,8.44
2023-02-22T04:59:36.179Z,8.52
2023-02-22T05:02:04.565Z,8.58
2023-02-22T05:04:34.706Z,8.54
2023-02-22T05:07:02.904Z,8.42
2023-02-22T05:09:31.136Z,8.32
2023-02-22T05:12:02.888Z,8.36
2023-02-22T05:14:31.132Z,8.43
2023-02-22T05:17:02.057Z,8.50
2023-02-22T05:19:30.699Z,8.55
2023-02-22T05:21:58.977Z,8.61
2023-02-22T05:24:27.695Z,8.73
2023-02-22T05:26:55.875Z,8.80
2023-02-22T05:29:24.437Z,8.79
2023-02-22T05:31:52.743Z,8.78
2023-02-22T05:34:21.382Z,8.80
2023-02-22T05:36:49.694Z,8.85
2023-02-22T05:39:21.312Z,8.94
2023-02-22T05:41:49.840Z,9.00
2023-02-22T05:44:17.999Z,9.07
2023-02-22T05:46:46.260Z,9.12
2023-02-22T05:49:15.050Z,9.16
2023-02-22T05:51:43.431Z,9.33
2023-02-22T05:54:11.604Z,9.49
2023-02-22T05:56:40.301Z,9.51
2023-02-22T05:59:08.677Z,9.43
2023-02-22T06:01:38.107Z,9.32
2023-02-22T06:04:06.662Z,9.26
2023-02-22T06:06:34.749Z,9.24
2023-02-22T06:09:02.837Z,9.29
2023-02-22T06:11:31.183Z,9.25
2023-02-22T06:13:59.772Z,9.19
2023-02-22T06:16:28.325Z,9.19
2023-02-22T06:18:56.730Z,9.22
2023-02-22T06:21:25.829Z,9.24
2023-02-22T06:23:54.017Z,9.26
2023-02-22T06:26:23.204Z,9.29
2023-02-22T06:28:51.733Z,9.23
2023-02-22T06:31:20.823Z,9.15
2023-02-22T06:33:49.238Z,9.05
2023-02-22T06:36:17.377Z,8.97
2023-02-22T06:38:45.610Z,8.93
2023-02-22T06:41:15.996Z,8.87
2023-02-22T06:43:48.053Z,8.77
2023-02-22T06:46:16.596Z,8.69
2023-02-22T06:48:44.709Z,8.69
2023-02-22T06:51:13.060Z,8.74
2023-02-22T06:53:41.530Z,8.81
2023-02-22T06:56:09.640Z,8.90
2023-02-22T06:58:38.925Z,8.90
2023-02-22T07:01:08.129Z,8.85
2023-02-22T07:03:36.554Z,8.87
2023-02-22T07:06:06.589Z,8.87
2023-02-22T07:08:39.419Z,8.89
2023-02-22T07:11:07.602Z,8.91
2023-02-22T07:13:37.731Z,8.92
2023-02-22T07:16:09.459Z,8.93
2023-02-22T07:18:38.768Z,8.93
2023-02-22T07:21:07.664Z,8.96
2023-02-22T07:23:36.537Z,9.02
2023-02-22T07:26:05.671Z,9.17
2023-02-22T07:28:33.816Z,9.38
2023-02-22T07:31:02.349Z,9.51
2023-02-22T07:33:30.994Z,9.61
2023-02-22T07:35:59.257Z,9.72
2023-02-22T07:38:27.333Z,9.82
2023-02-22T07:40:58.070Z,9.88
2023-02-22T07:43:27.516Z,9.86
2023-02-22T07:45:56.696Z,9.79
2023-02-22T07:48:27.149Z,9.80
2023-02-22T07:50:55.619Z,9.84
2023-02-22T07:53:30.429Z,9.87
2023-02-22T07:55:59.029Z,9.87
2023-02-22T07:58:28.623Z,9.76
2023-02-22T08:01:03.850Z,9.63
2023-02-22T08:03:36.661Z,9.53
2023-02-22T08:06:06.629Z,9.41
2023-02-22T08:08:35.106Z,9.41
2023-02-22T08:11:04.353Z,9.43
2023-02-22T08:13:33.219Z,9.45
2023-02-22T08:16:02.171Z,9.43
2023-02-22T08:18:30.846Z,9.38
2023-02-22T08:20:59.311Z,9.46
2023-02-22T08:23:27.921Z,9.57
2023-02-22T08:25:56.341Z,9.64
2023-02-22T08:28:24.844Z,9.71
2023-02-22T08:30:53.287Z,9.77
2023-02-22T08:33:25.999Z,9.79
2023-02-22T08:35:58.013Z,9.86
2023-02-22T08:38:28.616Z,9.94
2023-02-22T08:40:56.992Z,9.96
2023-02-22T08:43:25.741Z,9.89
2023-02-22T08:45:56.932Z,9.83
2023-02-22T08:48:25.805Z,9.75
2023-02-22T08:50:55.042Z,9.64
2023-02-22T08:53:23.529Z,9.55
2023-02-22T08:55:51.749Z,9.50
2023-02-22T08:58:20.254Z,9.55
2023-02-22T09:00:49.257Z,9.67
2023-02-22T09:03:17.532Z,9.79
2023-02-22T09:05:46.139Z,9.86
2023-02-22T09:08:16.164Z,9.85
2023-02-22T09:10:45.450Z,9.80
2023-02-22T09:13:17.017Z,9.74
2023-02-22T09:15:45.415Z,9.77
2023-02-22T09:18:14.792Z,9.79
2023-02-22T09:20:46.016Z,9.80
2023-02-22T09:23:14.695Z,9.80
2023-02-22T09:25:43.724Z,9.82
2023-02-22T09:28:11.965Z,9.88
2023-02-22T09:30:40.190Z,9.92
2023-02-22T09:33:10.660Z,9.89
2023-02-22T09:35:42.667Z,9.87
2023-02-22T09:38:11.860Z,9.93
2023-02-22T09:40:45.303Z,9.98
2023-02-22T09:43:33.928Z,10.01
2023-02-22T09:46:42.274Z,10.07
2023-02-22T09:49:14.012Z,10.13
2023-02-22T09:51:54.557Z,10.12
2023-02-22T09:54:25.569Z,10.10
2023-02-22T09:56:56.824Z,10.11
2023-02-22T09:59:28.912Z,10.15
2023-02-22T10:02:14.465Z,10.22
2023-02-22T10:04:45.417Z,10.33
2023-02-22T10:07:20.969Z,10.40
2023-02-22T10:09:49.126Z,10.46
2023-02-22T10:12:33.397Z,10.54
2023-02-22T10:15:07.605Z,10.56
2023-02-22T10:17:43.957Z,10.57
2023-02-22T10:20:38.407Z,10.61
2023-02-22T10:23:15.771Z,10.71
2023-02-22T10:25:45.274Z,10.78
2023-02-22T10:28:20.057Z,10.82
2023-02-22T10:30:56.239Z,10.85
2023-02-22T10:33:30.320Z,10.83
2023-02-22T10:36:02.853Z,10.84
2023-02-22T10:38:35.123Z,10.86
2023-02-22T10:41:23.387Z,10.87
2023-02-22T10:43:51.472Z,10.93
2023-02-22T10:46:21.300Z,11.00
2023-02-22T10:48:52.193Z,11.11
2023-02-22T10:51:20.474Z,11.16
2023-02-22T10:54:20.176Z,11.16
2023-02-22T10:56:50.551Z,11.29
2023-02-22T10:59:29.696Z,11.41
2023-02-22T11:01:57.718Z,11.45
2023-02-22T11:04:26.118Z,11.49
2023-02-22T11:07:08.737Z,11.54
2023-02-22T11:10:08.310Z,11.60
2023-02-22T11:12:47.932Z,11.66
2023-02-22T11:15:19.103Z,11.65
2023-02-22T11:17:50.472Z,11.73
2023-02-22T11:20:25.835Z,11.80
2023-02-22T11:22:55.916Z,11.83
2023-02-22T11:25:26.852Z,11.77
2023-02-22T11:27:54.963Z,11.65
2023-02-22T11:30:31.387Z,11.50
2023-02-22T11:33:12.820Z,11.28
2023-02-22T11:35:55.157Z,11.08
2023-02-22T11:38:23.790Z,10.94
2023-02-22T11:41:06.113Z,10.85
2023-02-22T11:43:35.518Z,10.79
2023-02-22T11:46:32.684Z,10.77
2023-02-22T11:49:07.051Z,10.75
2023-02-22T11:51:42.521Z,10.68
2023-02-22T11:54:33.083Z,10.63
2023-02-22T11:57:22.358Z,10.58
2023-02-22T12:00:24.972Z,10.60
2023-02-22T12:03:17.400Z,10.65
2023-02-22T12:06:07.139Z,10.68
2023-02-22T12:08:38.960Z,10.77
2023-02-22T12:11:18.398Z,10.87
2023-02-22T12:14:05.781Z,11.03
2023-02-22T12:16:40.082Z,11.20
2023-02-22T12:19:26.645Z,11.34
2023-02-22T12:21:58.514Z,11.50
2023-02-22T12:24:35.756Z,11.67
2023-02-22T12:27:28.488Z,11.82
2023-02-22T12:30:18.757Z,11.97
2023-02-22T12:33:08.427Z,12.10
2023-02-22T12:35:42.299Z,12.18
2023-02-22T12:38:15.058Z,12.19
2023-02-22T12:40:47.803Z,12.15
2023-02-22T12:43:39.033Z,12.04
2023-02-22T12:46:07.529Z,11.93
2023-02-22T12:48:42.228Z,11.83
2023-02-22T12:51:43.225Z,11.83
2023-02-22T12:54:33.671Z,11.84
2023-02-22T12:57:44.569Z,11.79
2023-02-22T13:00:17.222Z,11.78
2023-02-22T13:02:46.547Z,11.77
2023-02-22T13:05:17.980Z,11.79
2023-02-22T13:08:14.433Z,11.77
2023-02-22T13:10:52.335Z,11.78
2023-02-22T13:13:31.679Z,11.79
2023-02-22T13:16:22.613Z,11.77
2023-02-22T13:18:56.974Z,11.72
2023-02-22T13:21:30.169Z,11.74
2023-02-22T13:24:20.489Z,11.75
2023-02-22T13:27:11.427Z,11.75
2023-02-22T13:29:44.955Z,11.73
2023-02-22T13:32:31.857Z,11.69
2023-02-22T13:35:06.472Z,11.74
2023-02-22T13:37:46.340Z,11.80
2023-02-22T13:40:46.549Z,11.86
2023-02-22T13:43:37.285Z,11.88
2023-02-22T13:46:12.814Z,11.89
2023-02-22T13:48:46.919Z,11.89
2023-02-22T13:51:33.776Z,11.86
2023-02-22T13:54:13.097Z,11.82
2023-02-22T13:56:46.439Z,11.80
2023-02-22T13:59:36.410Z,11.83
2023-02-22T14:02:05.639Z,11.88
2023-02-22T14:04:39.928Z,11.90
2023-02-22T14:07:21.893Z,11.93
2023-02-22T14:09:56.187Z,11.90
2023-02-22T14:12:34.919Z,11.83
2023-02-22T14:15:30.870Z,11.78
2023-02-22T14:18:04.361Z,11.76
2023-02-22T14:20:38.339Z,11.69
2023-02-22T14:23:29.159Z,11.61
2023-02-22T14:25:58.198Z,11.57
2023-02-22T14:28:36.827Z,11.56
2023-02-22T14:31:38.127Z,11.56
2023-02-22T14:34:08.958Z,11.56
2023-02-22T14:36:41.996Z,11.55
2023-02-22T14:39:13.238Z,11.50
2023-02-22T14:41:46.140Z,11.39
2023-02-22T14:44:14.359Z,11.31
2023-02-22T14:46:42.799Z,11.26
2023-02-22T14:49:18.925Z,11.25
2023-02-22T14:51:59.876Z,11.27
2023-02-22T14:54:39.961Z,11.28
2023-02-22T14:57:18.743Z,11.24
2023-02-22T14:59:57.301Z,11.19
2023-02-22T15:02:26.248Z,11.16
2023-02-22T15:04:55.809Z,11.11
2023-02-22T15:07:30.033Z,11.08
2023-02-22T15:10:20.752Z,11.06
2023-02-22T15:13:09.146Z,11.03
2023-02-22T15:15:48.217Z,11.00
2023-02-22T15:18:35.644Z,10.92
2023-02-22T15:21:24.965Z,10.92
2023-02-22T15:23:59.442Z,10.91
2023-02-22T15:26:59.010Z,10.88
2023-02-22T15:29:39.587Z,10.90
2023-02-22T15:32:31.212Z,10.93
2023-02-22T15:35:25.866Z,10.94
2023-02-22T15:38:10.742Z,10.95
2023-02-22T15:40:43.153Z,10.96
2023-02-22T15:43:28.579Z,10.98
2023-02-22T15:45:57.407Z,11.00
2023-02-22T15:48:26.987Z,11.02
2023-02-22T15:51:10.651Z,11.02
2023-02-22T15:53:43.654Z,11.02
2023-02-22T15:56:16.515Z,11.02
2023-02-22T15:58:46.196Z,11.02
2023-02-22T16:01:17.905Z,11.02
2023-02-22T16:03:47.426Z,10.97
2023-02-22T16:07:59.118Z,9.64
2023-02-22T16:10:31.743Z,10.69
2023-02-22T16:13:32.801Z,10.71
2023-02-22T16:16:02.669Z,10.61
2023-02-22T16:18:37.039Z,10.52
2023-02-22T16:21:15.377Z,10.47
2023-02-22T16:23:46.552Z,10.52
2023-02-22T16:26:26.127Z,10.44
2023-02-22T16:29:05.324Z,10.36
2023-02-22T16:31:37.353Z,10.29
2023-02-22T16:34:06.139Z,10.20
2023-02-22T16:36:43.150Z,10.11
2023-02-22T16:39:21.990Z,10.07
2023-02-22T16:41:50.242Z,10.04
2023-02-22T16:44:17.069Z,10.05
2023-02-22T16:46:44.662Z,10.06
2023-02-22T16:49:12.307Z,10.07
2023-02-22T16:51:54.751Z,10.07
2023-02-22T16:54:25.325Z,10.00
2023-02-22T16:56:52.406Z,9.93
2023-02-22T16:59:19.838Z,9.88
2023-02-22T17:01:46.713Z,9.89
2023-02-22T17:04:19.478Z,9.89
2023-02-22T17:06:47.122Z,9.92
2023-02-22T17:09:15.062Z,9.92
2023-02-22T17:11:42.243Z,9.94
2023-02-22T17:14:09.760Z,9.97
2023-02-22T17:16:37.064Z,9.99
2023-02-22T17:26:45.337Z,10.29
2023-02-22T17:29:17.875Z,10.31
2023-02-22T17:31:46.393Z,10.33
2023-02-22T17:34:14.462Z,10.35
2023-02-22T17:36:42.815Z,10.34
2023-02-22T17:39:11.124Z,10.33
2023-02-22T17:41:40.671Z,10.27
2023-02-22T17:44:09.149Z,10.14
2023-02-22T17:46:40.872Z,9.97
2023-02-22T17:49:11.915Z,9.80
2023-02-22T17:51:49.721Z,9.72
2023-02-22T17:54:18.014Z,9.72
2023-02-22T17:56:46.783Z,9.75
2023-02-22T17:59:15.257Z,9.76
2023-02-22T18:01:44.180Z,9.68
2023-02-22T18:04:12.488Z,9.55
2023-02-22T18:06:41.375Z,9.44
2023-02-22T18:09:14.806Z,9.32
2023-02-22T18:11:43.730Z,9.19
2023-02-22T18:14:12.465Z,9.10
2023-02-22T18:16:47.052Z,8.98
2023-02-22T18:19:21.010Z,8.89
2023-02-22T18:21:50.338Z,8.98
2023-02-22T18:24:19.388Z,9.07
2023-02-22T18:26:47.783Z,9.07
2023-02-22T18:29:16.471Z,9.08
2023-02-22T18:31:45.642Z,9.01
2023-02-22T18:34:17.707Z,8.85
2023-02-22T18:36:46.148Z,8.77
2023-02-22T18:39:14.233Z,8.73
2023-02-22T18:41:42.711Z,8.68
2023-02-22T18:44:11.547Z,8.68
2023-02-22T18:46:40.452Z,8.66
2023-02-22T18:49:13.808Z,8.65
2023-02-22T18:51:43.762Z,8.62
2023-02-22T18:54:13.250Z,8.69
2023-02-22T18:56:41.485Z,8.84
2023-02-22T18:59:12.357Z,8.92
2023-02-22T19:01:48.979Z,8.97
2023-02-22T19:04:18.326Z,8.98
2023-02-22T19:06:48.730Z,8.99
2023-02-22T19:09:17.656Z,9.01
2023-02-22T19:11:46.820Z,9.00
2023-02-22T19:14:16.594Z,9.00
2023-02-22T19:16:46.670Z,9.02
2023-02-22T19:19:20.856Z,9.04
2023-02-22T19:21:49.354Z,9.07
2023-02-22T19:24:21.147Z,9.11
2023-02-22T19:26:57.284Z,9.21
2023-02-22T19:29:27.504Z,9.31
2023-02-22T19:31:55.918Z,9.34
2023-02-22T19:34:26.101Z,9.33
2023-02-22T19:37:41.222Z,9.33
2023-02-22T19:40:11.893Z,9.26
2023-02-22T19:42:40.623Z,9.22
2023-02-22T19:45:09.088Z,9.21
2023-02-22T19:47:39.000Z,9.19
2023-02-22T19:50:08.005Z,9.16
2023-02-22T19:52:39.021Z,9.13
2023-02-22T19:55:12.949Z,9.09
2023-02-22T19:57:41.452Z,9.04
2023-02-22T20:00:13.742Z,9.06
2023-02-22T20:02:44.848Z,9.13
2023-02-22T20:05:16.565Z,9.17
2023-02-22T20:07:46.604Z,9.14
2023-02-22T20:10:15.824Z,9.12
2023-02-22T20:12:43.995Z,9.09
2023-02-22T20:15:13.195Z,9.07
2023-02-22T20:17:42.167Z,9.04
2023-02-22T20:20:10.778Z,9.03
2023-02-22T20:22:40.998Z,9.05
2023-02-22T20:25:09.215Z,9.07
2023-02-22T20:27:38.380Z,9.07
2023-02-22T20:30:11.950Z,9.06
2023-02-22T20:32:42.984Z,9.11
2023-02-22T20:35:16.825Z,9.16
2023-02-22T20:37:45.626Z,9.19
2023-02-22T20:40:14.098Z,9.19
2023-02-22T20:42:44.965Z,9.20
2023-02-22T20:45:15.057Z,9.17
2023-02-22T20:47:43.570Z,9.08
2023-02-22T20:50:12.030Z,8.95
2023-02-22T20:52:41.715Z,8.81
2023-02-22T20:55:11.551Z,8.51
2023-02-22T20:57:39.838Z,8.30
2023-02-22T21:00:10.594Z,8.23
2023-02-22T21:02:38.744Z,8.17
2023-02-22T21:05:07.257Z,8.06
2023-02-22T21:07:36.005Z,8.01
2023-02-22T21:10:06.786Z,8.02
2023-02-22T21:12:35.483Z,8.01
2023-02-22T21:15:04.430Z,7.91
2023-02-22T21:17:32.819Z,7.81
2023-02-22T21:20:03.792Z,7.71
2023-02-22T21:22:33.895Z,7.62
2023-02-22T21:25:02.662Z,7.56
2023-02-22T21:27:32.691Z,7.50
2023-02-22T21:30:00.960Z,7.44
2023-02-22T21:32:29.460Z,7.36
2023-02-22T21:34:57.786Z,7.23
2023-02-22T21:37:26.199Z,7.04
2023-02-22T21:39:54.633Z,6.86
2023-02-22T21:42:23.166Z,6.76
2023-02-22T21:44:56.064Z,6.66
2023-02-22T21:47:24.138Z,6.57
2023-02-22T21:49:52.959Z,6.53
2023-02-22T21:52:21.108Z,6.58
2023-02-22T21:54:51.043Z,6.60
2023-02-22T21:57:19.397Z,6.60
2023-02-22T21:59:48.606Z,6.55
2023-02-22T22:02:17.000Z,6.50
2023-02-22T22:04:45.965Z,6.53
2023-02-22T22:07:17.934Z,6.58
2023-02-22T22:09:48.304Z,6.61
2023-02-22T22:12:17.973Z,6.61
2023-02-22T22:14:47.189Z,6.62
2023-02-22T22:17:18.916Z,6.71
2023-02-22T22:19:48.889Z,6.73
2023-02-22T22:22:17.163Z,6.74
2023-02-22T22:24:48.675Z,6.77
2023-02-22T22:27:17.131Z,6.82
2023-02-22T22:29:45.666Z,6.82
2023-02-22T22:32:16.403Z,6.82
2023-02-22T22:34:49.366Z,6.80
2023-02-22T22:37:17.950Z,6.76
2023-02-22T22:39:46.088Z,6.78
2023-02-22T22:42:14.559Z,6.69
2023-02-22T22:44:42.612Z,6.62
2023-02-22T22:47:14.030Z,6.58
2023-02-22T22:49:42.874Z,6.57
2023-02-22T22:52:16.378Z,6.54
2023-02-22T22:54:50.757Z,6.53
2023-02-22T22:57:18.894Z,6.51
2023-02-22T22:59:47.059Z,6.52
2023-02-22T23:02:19.858Z,6.53
2023-02-22T23:04:51.773Z,6.62
2023-02-22T23:07:19.831Z,6.73
2023-02-22T23:09:48.870Z,6.78
2023-02-22T23:12:17.935Z,6.74
2023-02-22T23:14:52.061Z,6.67
2023-02-22T23:17:41.261Z,6.59
2023-02-22T23:20:13.564Z,6.42
2023-02-22T23:22:47.350Z,6.36
2023-02-22T23:25:19.519Z,6.35
2023-02-22T23:27:48.237Z,6.34
2023-02-22T23:30:18.730Z,6.37
2023-02-22T23:32:47.808Z,6.34
2023-02-22T23:35:15.941Z,6.26
2023-02-22T23:37:46.330Z,6.20
2023-02-22T23:40:18.823Z,6.11
2023-02-22T23:42:51.452Z,6.05
2023-02-22T23:45:22.934Z,5.96
2023-02-22T23:47:54.999Z,5.93
2023-02-22T23:50:27.257Z,5.94
2023-02-22T23:52:59.085Z,5.99
2023-02-22T23:55:28.335Z,6.05
2023-02-22T23:57:59.706Z,6.10
